メインページ
METAR-TAF:

METAR-TAF

空港 :

ハルツーム国際空港

ハルツーム, スーダン

緯度: 15-36N, 経度: 032-33E, 海抜: 382m

現時点の気象観測

当レポートは37分前の18:30(UTC)に作成
の風 6kt
気温 30°C
湿度 55%
気圧 1011 hPa
視程10km以上
1,500メートル以下は雲なし、積乱雲なし

METAR: HSSS 191830Z 17006KT CAVOK 30/20 Q1011 NOSIG

時間: 22:07 (19:07 UTC)

予報

当レポートは2時間7分前の17:00(UTC)に作成
予報は19日の 18時(UTC)から 20日の 24時(UTC)まで有効
南/南西の風 8kt、最大18ktの突風を伴う
視程10km以上
高度4000ftの雲はほとんどない
高度14000ftの雲は散在している
19日の 18時(UTC)から 19日の 24時(UTC)まで一時的に
視程: 8000m
高度14000ftの千切れ雲あり
にわか雨

TAF: HSSS 191700Z 1918/2024 21008G18KT 9999 FEW040 SCT140 TEMPO 1918/1924 8000 SHRA BKN140

4,000以上の空港の気象観測と天気予報(METAR報とTAF報)

利用可能な観測所は地図上に黄色い丸と赤い丸で示す。

丸の上にカーソルを重ねると観測所名を参照できる。

次にクリックすると気象観測と天気予報を参照できる。

マップの切り替え:黒色「×」印の緑ボタンをクリックして拡大、「-」印の緑ボタンをクリックして縮小、緑色の三角印をクリックして隣りの地図に切り替え


METAR-TAF: